createdAt,value
2023-01-19T00:01:34.839Z,99738.31
2023-01-19T00:04:04.170Z,99740.94
2023-01-19T00:06:32.481Z,99740.94
2023-01-19T00:09:01.715Z,99732.03
2023-01-19T00:11:29.471Z,99742.66
2023-01-19T00:13:58.790Z,99739.22
2023-01-19T00:16:26.513Z,99740.25
2023-01-19T00:18:54.431Z,99735.78
2023-01-19T00:21:22.751Z,99744.53
2023-01-19T00:23:52.825Z,99740.25
2023-01-19T00:26:23.118Z,99741.91
2023-01-19T00:28:51.304Z,99748.06
2023-01-19T00:31:21.537Z,99745.00
2023-01-19T00:33:51.488Z,99741.56
2023-01-19T00:36:19.898Z,99743.06
2023-01-19T00:38:47.650Z,99744.94
2023-01-19T00:41:15.453Z,99737.75
2023-01-19T00:43:43.671Z,99740.44
2023-01-19T00:46:11.560Z,99738.69
2023-01-19T00:48:39.319Z,99740.44
2023-01-19T00:51:07.103Z,99739.50
2023-01-19T00:53:34.855Z,99739.16
2023-01-19T00:56:02.639Z,99749.38
2023-01-19T00:58:30.390Z,99740.66
2023-01-19T01:01:03.909Z,99748.16
2023-01-19T01:03:32.199Z,99741.50
2023-01-19T01:06:00.476Z,99738.13
2023-01-19T01:08:28.224Z,99749.59
2023-01-19T01:10:56.143Z,99750.16
2023-01-19T01:13:27.279Z,99745.97
2023-01-19T01:15:56.829Z,99753.88
2023-01-19T01:18:26.402Z,99756.03
2023-01-19T01:20:56.212Z,99755.97
2023-01-19T01:23:24.241Z,99745.53
2023-01-19T01:25:52.032Z,99745.34
2023-01-19T01:28:19.762Z,99751.28
2023-01-19T01:30:47.801Z,99749.91
2023-01-19T01:33:15.774Z,99766.28
2023-01-19T01:36:05.287Z,99745.34
2023-01-19T01:38:33.048Z,99765.97
2023-01-19T01:41:00.737Z,99745.34
2023-01-19T01:43:43.791Z,99749.50
2023-01-19T01:46:15.490Z,99746.16
2023-01-19T01:48:45.764Z,99746.06
2023-01-19T01:51:27.912Z,99746.84
2023-01-19T01:54:02.614Z,99752.88
2023-01-19T01:56:35.610Z,99757.25
2023-01-19T01:59:05.631Z,99758.16
2023-01-19T02:01:50.982Z,99752.94
2023-01-19T02:04:18.912Z,99754.66
2023-01-19T02:07:06.196Z,99753.72
2023-01-19T02:09:53.437Z,99755.38
2023-01-19T02:12:38.613Z,99758.72
2023-01-19T02:15:07.394Z,99763.72
2023-01-19T02:17:35.104Z,99755.00
2023-01-19T02:20:02.843Z,99757.78
2023-01-19T02:22:36.109Z,99754.25
2023-01-19T02:25:06.280Z,99747.09
2023-01-19T02:27:34.362Z,99743.75
2023-01-19T02:30:03.798Z,99749.78
2023-01-19T02:32:31.720Z,99752.19
2023-01-19T02:34:59.666Z,99750.53
2023-01-19T02:37:28.113Z,99751.25
2023-01-19T02:39:59.800Z,99752.75
2023-01-19T02:42:31.663Z,99749.22
2023-01-19T02:45:00.033Z,99751.09
2023-01-19T02:47:27.924Z,99750.66
2023-01-19T02:49:57.179Z,99753.84
2023-01-19T02:52:37.178Z,99740.69
2023-01-19T02:55:11.394Z,99746.63
2023-01-19T02:57:54.358Z,99743.97
2023-01-19T03:00:28.859Z,99743.75
2023-01-19T03:03:06.002Z,99729.03
2023-01-19T03:05:43.620Z,99735.94
2023-01-19T03:08:18.513Z,99726.16
2023-01-19T03:10:49.395Z,99734.88
2023-01-19T03:13:23.712Z,99724.44
2023-01-19T03:15:54.405Z,99740.94
2023-01-19T03:18:26.137Z,99732.38
2023-01-19T03:20:56.571Z,99735.00
2023-01-19T03:23:27.537Z,99735.09
2023-01-19T03:25:57.508Z,99743.13
2023-01-19T03:28:28.429Z,99740.59
2023-01-19T03:31:03.204Z,99742.56
2023-01-19T03:33:33.411Z,99735.69
2023-01-19T03:36:05.532Z,99754.66
2023-01-19T03:38:36.874Z,99753.84
2023-01-19T03:41:07.627Z,99753.28
2023-01-19T03:43:37.418Z,99748.53
2023-01-19T03:46:06.305Z,99755.19
2023-01-19T03:48:34.343Z,99754.81
2023-01-19T03:51:04.824Z,99763.94
2023-01-19T03:53:32.491Z,99756.50
2023-01-19T03:56:00.288Z,99759.94
2023-01-19T03:58:28.176Z,99757.34
2023-01-19T04:00:57.392Z,99756.97
2023-01-19T04:03:25.100Z,99749.16
2023-01-19T04:05:52.905Z,99749.94
2023-01-19T04:08:20.606Z,99752.59
2023-01-19T04:10:48.320Z,99756.13
2023-01-19T04:13:16.077Z,99755.41
2023-01-19T04:15:43.840Z,99744.78
2023-01-19T04:18:13.058Z,99745.72
2023-01-19T04:20:40.815Z,99746.19
2023-01-19T04:23:08.550Z,99752.69
2023-01-19T04:25:38.021Z,99741.28
2023-01-19T04:28:06.600Z,99762.13
2023-01-19T04:30:34.250Z,99741.44
2023-01-19T04:33:02.397Z,99755.31
2023-01-19T04:35:31.811Z,99745.56
2023-01-19T04:37:59.557Z,99752.22
2023-01-19T04:40:27.426Z,99765.09
2023-01-19T04:42:55.495Z,99756.13
2023-01-19T04:45:23.355Z,99759.31
2023-01-19T04:47:52.029Z,99757.63
2023-01-19T04:50:20.057Z,99755.03
2023-01-19T04:52:49.426Z,99755.75
2023-01-19T04:55:17.548Z,99748.31
2023-01-19T04:57:45.802Z,99749.72
2023-01-19T05:00:14.381Z,99752.78
2023-01-19T05:02:44.450Z,99750.81
2023-01-19T05:05:12.816Z,99754.81
2023-01-19T05:07:40.721Z,99758.13
2023-01-19T05:10:11.453Z,99753.59
2023-01-19T05:12:39.561Z,99773.59
2023-01-19T05:15:09.640Z,99775.91
2023-01-19T05:17:37.355Z,99774.06
2023-01-19T05:20:05.990Z,99770.31
2023-01-19T05:22:33.717Z,99784.09
2023-01-19T05:25:01.652Z,99790.78
2023-01-19T05:27:30.684Z,99786.41
2023-01-19T05:29:58.352Z,99775.88
2023-01-19T05:32:25.996Z,99789.03
2023-01-19T05:34:53.621Z,99777.03
2023-01-19T05:37:21.375Z,99793.69
2023-01-19T05:39:49.055Z,99798.72
2023-01-19T05:42:17.093Z,99801.41
2023-01-19T05:44:46.240Z,99797.22
2023-01-19T05:47:14.186Z,99805.97
2023-01-19T05:49:41.871Z,99809.53
2023-01-19T05:52:09.627Z,99797.44
2023-01-19T05:54:40.552Z,99796.03
2023-01-19T05:57:08.526Z,99797.91
2023-01-19T05:59:36.322Z,99805.72
2023-01-19T06:02:05.521Z,99802.28
2023-01-19T06:04:33.559Z,99809.91
2023-01-19T06:07:02.137Z,99809.78
2023-01-19T06:09:30.470Z,99826.09
2023-01-19T06:11:59.447Z,99819.75
2023-01-19T06:14:27.329Z,99823.13
2023-01-19T06:16:55.025Z,99825.63
2023-01-19T06:19:24.093Z,99822.91
2023-01-19T06:21:52.434Z,99827.09
2023-01-19T06:24:20.391Z,99829.81
2023-01-19T06:26:48.057Z,99827.19
2023-01-19T06:29:15.897Z,99836.06
2023-01-19T06:31:43.878Z,99855.16
2023-01-19T06:34:11.711Z,99854.94
2023-01-19T06:36:40.897Z,99864.28
2023-01-19T06:39:10.639Z,99874.59
2023-01-19T06:41:38.620Z,99884.09
2023-01-19T06:44:07.267Z,99881.38
2023-01-19T06:46:35.885Z,99879.72
2023-01-19T06:49:03.723Z,99876.38
2023-01-19T06:51:31.468Z,99891.81
2023-01-19T06:54:00.743Z,99903.75
2023-01-19T06:56:28.510Z,99895.81
2023-01-19T06:58:56.484Z,99903.16
2023-01-19T07:01:24.242Z,99915.28
2023-01-19T07:03:51.991Z,99930.84
2023-01-19T07:06:19.773Z,99931.97
2023-01-19T07:08:47.560Z,99941.25
2023-01-19T07:11:26.597Z,99946.41
2023-01-19T07:14:01.228Z,99946.31
2023-01-19T07:16:29.064Z,99957.03
2023-01-19T07:18:56.886Z,99960.38
2023-01-19T07:21:25.005Z,99966.41
2023-01-19T07:23:53.462Z,99965.41
2023-01-19T07:26:25.009Z,99982.75
2023-01-19T07:28:53.258Z,99988.91
2023-01-19T07:31:21.332Z,99983.69
2023-01-19T07:33:49.108Z,99987.97
2023-01-19T07:36:16.792Z,99993.91
2023-01-19T07:38:44.524Z,99992.03
2023-01-19T07:41:12.364Z,99985.91
2023-01-19T07:43:41.490Z,100005.84
2023-01-19T07:46:09.233Z,100004.91
2023-01-19T07:48:36.993Z,100005.66
2023-01-19T07:51:10.971Z,100002.84
2023-01-19T07:53:41.755Z,100008.06
2023-01-19T07:56:10.286Z,100015.81
2023-01-19T07:58:38.068Z,100015.81
2023-01-19T08:01:09.240Z,100021.88
2023-01-19T08:03:36.950Z,100020.94
2023-01-19T08:06:05.392Z,100018.50
2023-01-19T08:08:33.346Z,100039.84
2023-01-19T08:11:01.158Z,100035.28
2023-01-19T08:13:28.944Z,100048.25
2023-01-19T08:15:56.780Z,100054.09
2023-01-19T08:18:25.879Z,100051.41
2023-01-19T08:20:53.521Z,100054.88
2023-01-19T08:23:21.241Z,100061.66
2023-01-19T08:25:48.941Z,100064.16
2023-01-19T08:28:17.944Z,100074.63
2023-01-19T08:30:46.245Z,100083.13
2023-01-19T08:33:14.367Z,100083.94
2023-01-19T08:35:45.577Z,100089.16
2023-01-19T08:38:13.226Z,100094.19
2023-01-19T08:40:42.536Z,100098.69
2023-01-19T08:43:12.788Z,100099.97
2023-01-19T08:45:48.391Z,100107.09
2023-01-19T08:48:17.210Z,100107.25
2023-01-19T08:50:47.568Z,100111.63
2023-01-19T08:53:15.511Z,100110.59
2023-01-19T08:55:43.772Z,100117.53
2023-01-19T08:58:11.650Z,100119.19
2023-01-19T09:00:40.968Z,100114.91
2023-01-19T09:03:10.480Z,100119.19
2023-01-19T09:05:39.024Z,100124.41
2023-01-19T09:08:10.010Z,100113.31
2023-01-19T09:10:38.042Z,100133.63
2023-01-19T09:13:07.060Z,100132.63
2023-01-19T09:15:37.443Z,100133.56
2023-01-19T09:18:06.918Z,100145.78
2023-01-19T09:20:36.205Z,100148.28
2023-01-19T09:23:04.355Z,100150.81
2023-01-19T09:25:33.765Z,100152.38
2023-01-19T09:28:02.643Z,100157.44
2023-01-19T09:30:30.665Z,100163.59
2023-01-19T09:33:02.999Z,100168.63
2023-01-19T09:35:31.545Z,100178.97
2023-01-19T09:37:59.562Z,100176.34
2023-01-19T09:40:27.656Z,100184.19
2023-01-19T09:42:59.472Z,100185.88
2023-01-19T09:45:32.525Z,100192.88
2023-01-19T09:48:01.303Z,100199.59
2023-01-19T09:50:33.250Z,100190.81
2023-01-19T09:53:07.368Z,100191.41
2023-01-19T09:55:35.162Z,100198.94
2023-01-19T09:58:05.083Z,100191.75
2023-01-19T10:00:33.517Z,100191.66
2023-01-19T10:03:10.633Z,100198.28
2023-01-19T10:05:41.267Z,100199.88
2023-01-19T10:08:17.016Z,100198.09
2023-01-19T10:10:49.250Z,100206.28
2023-01-19T10:13:33.499Z,100206.97
2023-01-19T10:16:08.356Z,100191.44
2023-01-19T10:18:47.427Z,100202.56
2023-01-19T10:21:19.123Z,100212.25
2023-01-19T10:23:50.158Z,100214.47
2023-01-19T10:26:21.806Z,100208.31
2023-01-19T10:28:54.319Z,100209.88
2023-01-19T10:31:24.899Z,100215.69
2023-01-19T10:33:54.101Z,100215.50
2023-01-19T10:36:23.398Z,100210.91
2023-01-19T10:38:51.973Z,100219.09
2023-01-19T10:41:22.280Z,100215.75
2023-01-19T10:44:00.669Z,100226.47
2023-01-19T10:46:35.183Z,100220.19
2023-01-19T10:49:03.153Z,100223.06
2023-01-19T10:51:30.882Z,100226.31
2023-01-19T10:54:01.118Z,100224.03
2023-01-19T10:56:32.558Z,100235.56
2023-01-19T10:59:03.507Z,100230.34
2023-01-19T11:01:36.040Z,100240.97
2023-01-19T11:04:22.056Z,100229.56
2023-01-19T11:06:49.829Z,100224.09
2023-01-19T11:09:19.906Z,100231.09
2023-01-19T11:11:49.833Z,100232.53
2023-01-19T11:14:22.108Z,100227.53
2023-01-19T11:16:52.927Z,100238.00
2023-01-19T11:19:23.314Z,100241.34
2023-01-19T11:21:50.990Z,100241.34
2023-01-19T11:24:18.990Z,100232.53
2023-01-19T11:26:48.987Z,100238.50
2023-01-19T11:29:22.137Z,100248.06
2023-01-19T11:31:50.533Z,100242.31
2023-01-19T11:34:29.533Z,100247.25
2023-01-19T11:36:59.416Z,100246.09
2023-01-19T11:39:29.139Z,100244.75
2023-01-19T11:41:58.604Z,100246.22
2023-01-19T11:44:31.226Z,100251.06
2023-01-19T11:47:00.883Z,100246.66
2023-01-19T11:49:39.821Z,100247.19
2023-01-19T11:52:14.038Z,100248.47
2023-01-19T11:54:47.413Z,100249.38
2023-01-19T11:57:18.129Z,100243.84
2023-01-19T11:59:47.587Z,100249.63
2023-01-19T12:02:25.646Z,100256.53
2023-01-19T12:04:56.779Z,100251.91
2023-01-19T12:07:29.288Z,100256.13
2023-01-19T12:10:02.832Z,100255.91
2023-01-19T12:12:32.294Z,100247.09
2023-01-19T12:15:04.367Z,100249.69
2023-01-19T12:17:35.947Z,100258.28
2023-01-19T12:20:09.154Z,100261.03
2023-01-19T12:22:41.695Z,100257.78
2023-01-19T12:25:16.198Z,100249.16
2023-01-19T12:27:45.441Z,100252.13
2023-01-19T12:30:20.656Z,100251.38
2023-01-19T12:32:48.689Z,100253.28
2023-01-19T12:35:53.899Z,100248.75
2023-01-19T12:38:46.427Z,100247.50
2023-01-19T12:41:27.930Z,100242.25
2023-01-19T12:44:19.202Z,100252.84
2023-01-19T12:46:50.223Z,100250.25
2023-01-19T12:49:24.263Z,100255.38
2023-01-19T12:51:53.789Z,100248.13
2023-01-19T12:54:31.600Z,100251.06
2023-01-19T12:57:01.979Z,100249.19
2023-01-19T12:59:29.984Z,100245.19
2023-01-19T13:02:37.840Z,100247.91
2023-01-19T13:05:12.492Z,100248.53
2023-01-19T13:08:15.143Z,100249.78
2023-01-19T13:11:19.909Z,100251.47
2023-01-19T13:14:27.680Z,100252.28
2023-01-19T13:17:20.485Z,100258.78
2023-01-19T13:20:06.479Z,100257.78
2023-01-19T13:23:05.553Z,100255.56
2023-01-19T13:25:35.831Z,100261.03
2023-01-19T13:28:10.030Z,100261.56
2023-01-19T13:30:38.765Z,100258.00
2023-01-19T13:33:11.431Z,100252.94
2023-01-19T13:35:40.858Z,100257.78
2023-01-19T13:38:08.877Z,100254.09
2023-01-19T13:40:39.905Z,100262.59
2023-01-19T13:43:14.668Z,100266.66
2023-01-19T13:45:43.024Z,100266.34
2023-01-19T13:48:16.235Z,100273.69
2023-01-19T13:50:58.215Z,100272.03
2023-01-19T13:53:26.062Z,100259.97
2023-01-19T13:56:14.128Z,100274.53
2023-01-19T13:58:41.957Z,100280.63
2023-01-19T14:01:21.887Z,100276.44
2023-01-19T14:03:52.342Z,100283.56
2023-01-19T14:06:32.527Z,100289.88
2023-01-19T14:09:07.864Z,100288.09
2023-01-19T14:11:35.622Z,100283.75
2023-01-19T14:14:04.056Z,100299.41
2023-01-19T14:16:32.105Z,100310.63
2023-01-19T14:19:01.213Z,100297.22
2023-01-19T14:21:40.787Z,100291.97
2023-01-19T14:24:10.012Z,100301.50
2023-01-19T14:26:45.075Z,100303.28
2023-01-19T14:29:18.884Z,100304.84
2023-01-19T14:32:15.998Z,100304.97
2023-01-19T14:34:44.842Z,100312.00
2023-01-19T14:37:25.981Z,100318.50
2023-01-19T14:39:57.291Z,100322.25
2023-01-19T14:42:28.176Z,100319.03
2023-01-19T14:44:57.571Z,100321.88
2023-01-19T14:47:32.090Z,100322.78
2023-01-19T14:50:03.760Z,100330.31
2023-01-19T14:52:35.932Z,100332.22
2023-01-19T14:55:06.929Z,100334.13
2023-01-19T14:57:36.121Z,100334.75
2023-01-19T15:00:12.223Z,100338.72
2023-01-19T15:02:39.989Z,100346.75
2023-01-19T15:05:08.844Z,100343.50
2023-01-19T15:07:39.099Z,100346.41
2023-01-19T15:10:12.510Z,100347.59
2023-01-19T15:12:40.242Z,100344.69
2023-01-19T15:15:15.104Z,100354.56
2023-01-19T15:17:43.046Z,100359.16
2023-01-19T15:20:15.912Z,100361.97
2023-01-19T15:22:45.429Z,100357.78
2023-01-19T15:25:16.775Z,100361.50
2023-01-19T15:27:45.145Z,100363.28
2023-01-19T15:30:21.002Z,100371.25
2023-01-19T15:32:48.787Z,100369.59
2023-01-19T15:35:17.952Z,100371.47
2023-01-19T15:37:47.417Z,100369.13
2023-01-19T15:40:15.654Z,100376.34
2023-01-19T15:43:16.621Z,100382.91
2023-01-19T15:45:45.269Z,100383.78
2023-01-19T15:48:13.185Z,100385.78
2023-01-19T15:50:42.228Z,100391.97
2023-01-19T15:53:14.462Z,100389.44
2023-01-19T15:55:42.301Z,100380.75
2023-01-19T15:58:10.045Z,100394.69
2023-01-19T16:00:39.273Z,100400.66
2023-01-19T16:03:07.196Z,100404.09
2023-01-19T16:05:42.921Z,100404.22
2023-01-19T16:08:11.759Z,100398.97
2023-01-19T16:10:39.924Z,100408.72
2023-01-19T16:13:07.835Z,100409.91
2023-01-19T16:15:35.932Z,100410.03
2023-01-19T16:18:07.371Z,100411.69
2023-01-19T16:20:35.172Z,100411.03
2023-01-19T16:23:14.963Z,100421.59
2023-01-19T16:25:42.966Z,100420.88
2023-01-19T16:28:10.929Z,100421.69
2023-01-19T16:30:38.664Z,100435.63
2023-01-19T16:33:08.453Z,100439.28
2023-01-19T16:35:36.273Z,100443.75
2023-01-19T16:38:06.688Z,100449.66
2023-01-19T16:40:34.461Z,100449.81
2023-01-19T16:43:05.085Z,100455.16
2023-01-19T16:45:32.953Z,100450.22
2023-01-19T16:48:00.868Z,100460.69
2023-01-19T16:50:30.072Z,100460.69
2023-01-19T16:53:00.380Z,100459.75
2023-01-19T16:55:28.172Z,100470.00
2023-01-19T16:57:56.826Z,100465.81
2023-01-19T17:00:24.733Z,100473.56
2023-01-19T17:02:52.640Z,100466.81
2023-01-19T17:05:20.366Z,100477.28
2023-01-19T17:07:49.516Z,100482.63
2023-01-19T17:10:17.488Z,100476.00
2023-01-19T17:12:45.240Z,100477.84
2023-01-19T17:15:12.961Z,100481.41
2023-01-19T17:17:40.614Z,100476.38
2023-01-19T17:20:11.066Z,100488.13
2023-01-19T17:22:39.137Z,100484.34
2023-01-19T17:25:09.370Z,100485.69
2023-01-19T17:27:37.048Z,100490.91
2023-01-19T17:30:05.044Z,100492.84
2023-01-19T17:32:32.721Z,100495.75
2023-01-19T17:35:00.483Z,100495.91
2023-01-19T17:37:28.193Z,100497.78
2023-01-19T17:39:55.925Z,100503.34
2023-01-19T17:42:25.411Z,100500.00
2023-01-19T17:44:53.075Z,100509.72
2023-01-19T17:47:24.660Z,100506.22
2023-01-19T17:49:52.472Z,100514.16
2023-01-19T17:52:20.141Z,100513.31
2023-01-19T17:54:47.822Z,100512.66
2023-01-19T17:57:15.499Z,100518.44
2023-01-19T17:59:44.678Z,100525.50
2023-01-19T18:02:12.452Z,100527.34
2023-01-19T18:04:40.693Z,100524.00
2023-01-19T18:07:08.511Z,100532.56
2023-01-19T18:09:36.188Z,100530.91
2023-01-19T18:12:03.956Z,100531.06
2023-01-19T18:14:31.668Z,100520.78
2023-01-19T18:17:00.776Z,100527.03
2023-01-19T18:19:28.615Z,100541.09
2023-01-19T18:21:56.669Z,100537.06
2023-01-19T18:24:24.334Z,100538.25
2023-01-19T18:26:54.255Z,100544.56
2023-01-19T18:29:23.289Z,100546.41
2023-01-19T18:31:50.996Z,100555.84
2023-01-19T18:34:20.276Z,100552.31
2023-01-19T18:36:48.018Z,100550.13
2023-01-19T18:39:15.763Z,100565.81
2023-01-19T18:41:43.525Z,100550.28
2023-01-19T18:44:11.991Z,100554.06
2023-01-19T18:46:40.170Z,100558.81
2023-01-19T18:49:07.981Z,100569.56
2023-01-19T18:51:39.544Z,100568.81
2023-01-19T18:54:07.481Z,100568.81
2023-01-19T18:56:35.494Z,100572.50
2023-01-19T18:59:03.602Z,100567.28
2023-01-19T19:01:33.319Z,100567.59
2023-01-19T19:04:01.754Z,100575.00
2023-01-19T19:06:29.608Z,100573.31
2023-01-19T19:08:59.191Z,100575.00
2023-01-19T19:11:27.735Z,100572.66
2023-01-19T19:13:56.768Z,100579.03
2023-01-19T19:16:24.677Z,100578.31
2023-01-19T19:18:52.506Z,100583.53
2023-01-19T19:21:21.740Z,100589.75
2023-01-19T19:23:53.084Z,100577.88
2023-01-19T19:26:22.785Z,100582.63
2023-01-19T19:28:50.635Z,100583.81
2023-01-19T19:31:20.902Z,100578.66
2023-01-19T19:33:50.811Z,100587.41
2023-01-19T19:36:19.900Z,100583.03
2023-01-19T19:38:47.865Z,100585.56
2023-01-19T19:41:17.647Z,100593.56
2023-01-19T19:43:46.819Z,100591.88
2023-01-19T19:46:16.470Z,100589.66
2023-01-19T19:48:44.346Z,100593.94
2023-01-19T19:51:18.506Z,100598.22
2023-01-19T19:53:49.615Z,100599.06
2023-01-19T19:56:21.035Z,100603.59
2023-01-19T19:58:51.169Z,100610.50
2023-01-19T20:01:20.839Z,100608.97
2023-01-19T20:03:48.773Z,100611.56
2023-01-19T20:06:20.790Z,100614.19
2023-01-19T20:08:48.706Z,100622.78
2023-01-19T20:11:19.028Z,100622.47
2023-01-19T20:13:47.716Z,100631.00
2023-01-19T20:16:19.296Z,100631.16
2023-01-19T20:18:51.070Z,100640.41
2023-01-19T20:21:20.357Z,100640.28
2023-01-19T20:23:48.887Z,100642.72
2023-01-19T20:26:19.211Z,100639.50
2023-01-19T20:28:47.551Z,100656.00
2023-01-19T20:31:19.135Z,100649.16
2023-01-19T20:33:48.119Z,100646.84
2023-01-19T20:36:16.301Z,100660.81
2023-01-19T20:38:44.075Z,100657.66
2023-01-19T20:41:13.649Z,100659.88
2023-01-19T20:43:41.404Z,100660.97
2023-01-19T20:46:09.315Z,100678.16
2023-01-19T20:48:39.192Z,100681.69
2023-01-19T20:51:08.448Z,100675.53
2023-01-19T20:53:36.480Z,100676.25
2023-01-19T20:56:06.219Z,100685.69
2023-01-19T20:58:33.946Z,100682.16
2023-01-19T21:01:01.842Z,100684.00
2023-01-19T21:03:30.191Z,100700.19
2023-01-19T21:05:59.677Z,100706.94
2023-01-19T21:08:27.375Z,100695.50
2023-01-19T21:10:56.944Z,100709.34
2023-01-19T21:13:24.656Z,100712.16
2023-01-19T21:15:52.361Z,100718.22
2023-01-19T21:18:20.085Z,100726.75
2023-01-19T21:20:48.588Z,100727.34
2023-01-19T21:23:19.082Z,100728.81
2023-01-19T21:25:50.874Z,100727.91
2023-01-19T21:28:19.099Z,100733.00
2023-01-19T21:30:47.642Z,100736.34
2023-01-19T21:33:15.962Z,100736.34
2023-01-19T21:35:51.194Z,100738.22
2023-01-19T21:38:20.474Z,100744.19
2023-01-19T21:40:48.172Z,100745.09
2023-01-19T21:43:15.973Z,100740.03
2023-01-19T21:45:44.533Z,100735.66
2023-01-19T21:48:12.209Z,100749.25
2023-01-19T21:50:40.399Z,100745.72
2023-01-19T21:53:11.134Z,100744.94
2023-01-19T21:55:44.707Z,100741.72
2023-01-19T21:58:12.440Z,100737.38
2023-01-19T22:00:40.978Z,100733.66
2023-01-19T22:03:08.890Z,100741.41
2023-01-19T22:05:37.181Z,100740.44
2023-01-19T22:08:06.225Z,100743.25
2023-01-19T22:10:36.736Z,100744.31
2023-01-19T22:13:06.725Z,100740.09
2023-01-19T22:15:34.652Z,100741.72
2023-01-19T22:18:02.391Z,100749.41
2023-01-19T22:20:30.174Z,100737.03
2023-01-19T22:22:58.139Z,100740.50
2023-01-19T22:25:27.802Z,100738.03
2023-01-19T22:27:55.652Z,100739.88
2023-01-19T22:30:24.856Z,100748.66
2023-01-19T22:32:53.112Z,100745.09
2023-01-19T22:35:21.206Z,100746.03
2023-01-19T22:37:48.908Z,100746.88
2023-01-19T22:40:17.114Z,100748.47
2023-01-19T22:42:46.693Z,100748.56
2023-01-19T22:45:15.041Z,100748.66
2023-01-19T22:47:44.482Z,100746.09
2023-01-19T22:50:12.442Z,100750.47
2023-01-19T22:52:40.077Z,100752.31
2023-01-19T22:55:08.183Z,100759.50
2023-01-19T22:57:36.578Z,100767.41
2023-01-19T23:00:06.763Z,100766.63
2023-01-19T23:02:34.470Z,100766.72
2023-01-19T23:05:03.852Z,100773.91
2023-01-19T23:07:31.612Z,100779.41
2023-01-19T23:09:59.594Z,100769.97
2023-01-19T23:12:27.307Z,100782.81
2023-01-19T23:14:55.055Z,100781.03
2023-01-19T23:17:22.789Z,100782.00
2023-01-19T23:19:50.458Z,100791.47
2023-01-19T23:22:19.619Z,100787.88
2023-01-19T23:24:47.377Z,100794.78
2023-01-19T23:27:15.194Z,100795.63
2023-01-19T23:29:42.863Z,100793.25
2023-01-19T23:32:10.595Z,100790.69
2023-01-19T23:34:38.393Z,100792.53
2023-01-19T23:37:06.087Z,100796.06
2023-01-19T23:39:35.224Z,100798.75
2023-01-19T23:42:03.537Z,100804.03
2023-01-19T23:44:31.293Z,100809.28
2023-01-19T23:46:59.075Z,100810.28
2023-01-19T23:49:26.993Z,100810.28
2023-01-19T23:51:54.712Z,100813.91
2023-01-19T23:54:22.448Z,100813.09
2023-01-19T23:56:51.576Z,100817.44
2023-01-19T23:59:19.353Z,100811.34
